createdAt,value
2022-08-19T00:00:13.569Z,99089.38
2022-08-19T00:02:50.205Z,99086.47
2022-08-19T00:05:20.189Z,99055.63
2022-08-19T00:07:51.453Z,99050.53
2022-08-19T00:10:21.088Z,99063.53
2022-08-19T00:12:49.394Z,99093.97
2022-08-19T00:15:20.521Z,99098.16
2022-08-19T00:17:49.886Z,99106.88
2022-08-19T00:20:22.369Z,99105.56
2022-08-19T00:22:50.593Z,99097.72
2022-08-19T00:25:19.358Z,99061.72
2022-08-19T00:28:01.880Z,99099.00
2022-08-19T00:30:30.015Z,99107.91
2022-08-19T00:32:58.884Z,99082.22
2022-08-19T00:35:28.514Z,99106.06
2022-08-19T00:37:57.326Z,99066.13
2022-08-19T00:40:26.148Z,99078.13
2022-08-19T00:42:57.299Z,99113.34
2022-08-19T00:45:31.735Z,99066.91
2022-08-19T00:48:04.922Z,99113.34
2022-08-19T00:50:34.205Z,99117.31
2022-08-19T00:53:06.063Z,99083.97
2022-08-19T00:55:35.040Z,99124.63
2022-08-19T00:58:11.293Z,99095.59
2022-08-19T01:00:39.832Z,99106.63
2022-08-19T01:03:12.237Z,99105.59
2022-08-19T01:05:44.434Z,99099.34
2022-08-19T01:08:15.134Z,99076.94
2022-08-19T01:10:57.392Z,99032.59
2022-08-19T01:13:44.438Z,99106.63
2022-08-19T01:16:20.478Z,99127.16
2022-08-19T01:18:50.372Z,99066.19
2022-08-19T01:21:39.094Z,99086.31
2022-08-19T01:24:07.596Z,99133.19
2022-08-19T01:26:45.526Z,99094.78
2022-08-19T01:29:15.910Z,99096.88
2022-08-19T01:31:43.843Z,99076.16
2022-08-19T01:34:11.875Z,99121.78
2022-08-19T01:36:50.402Z,99119.06
2022-08-19T01:39:25.210Z,99066.63
2022-08-19T01:41:55.619Z,99127.13
2022-08-19T01:44:25.150Z,99131.09
2022-08-19T01:46:53.617Z,99135.22
2022-08-19T01:49:26.346Z,99142.06
2022-08-19T01:51:55.897Z,99092.28
2022-08-19T01:54:27.878Z,99119.25
2022-08-19T01:57:09.824Z,99129.00
2022-08-19T01:59:38.182Z,99084.00
2022-08-19T02:02:09.793Z,99127.09
2022-08-19T02:04:39.843Z,99139.75
2022-08-19T02:07:09.389Z,99117.78
2022-08-19T02:09:37.611Z,99122.97
2022-08-19T02:12:09.368Z,99103.50
2022-08-19T02:14:37.976Z,99078.78
2022-08-19T02:17:06.471Z,99091.03
2022-08-19T02:19:34.703Z,99086.44
2022-08-19T02:22:02.825Z,99128.97
2022-08-19T02:24:30.809Z,99125.44
2022-08-19T02:26:59.909Z,99085.84
2022-08-19T02:29:28.071Z,99016.34
2022-08-19T02:31:57.426Z,99081.91
2022-08-19T02:34:26.221Z,99066.75
2022-08-19T02:36:54.420Z,99107.00
2022-08-19T02:39:22.388Z,99070.28
2022-08-19T02:41:51.217Z,99091.03
2022-08-19T02:44:29.060Z,99071.97
2022-08-19T02:47:00.729Z,99066.59
2022-08-19T02:49:29.025Z,99066.97
2022-08-19T02:51:57.001Z,99098.91
2022-08-19T02:54:25.222Z,99120.44
2022-08-19T02:56:53.601Z,99112.16
2022-08-19T02:59:22.970Z,99115.47
2022-08-19T03:01:51.466Z,99124.34
2022-08-19T03:04:20.591Z,99075.19
2022-08-19T03:06:49.386Z,99075.19
2022-08-19T03:09:20.294Z,99108.81
2022-08-19T03:11:48.981Z,99110.66
2022-08-19T03:14:20.644Z,99039.50
2022-08-19T03:16:53.577Z,99117.69
2022-08-19T03:19:22.504Z,99114.56
2022-08-19T03:21:52.344Z,99105.47
2022-08-19T03:24:21.350Z,99120.81
2022-08-19T03:26:53.983Z,99121.84
2022-08-19T03:29:30.438Z,99118.31
2022-08-19T03:32:05.959Z,99087.19
2022-08-19T03:34:37.351Z,99123.91
2022-08-19T03:37:13.236Z,99110.19
2022-08-19T03:39:43.405Z,99122.28
2022-08-19T03:42:32.307Z,99115.63
2022-08-19T03:45:00.806Z,99127.25
2022-08-19T03:47:28.984Z,99048.75
2022-08-19T03:49:56.886Z,99130.16
2022-08-19T03:52:25.008Z,99104.44
2022-08-19T03:54:52.972Z,99132.06
2022-08-19T03:57:20.883Z,99090.50
2022-08-19T03:59:53.639Z,99128.94
2022-08-19T04:02:22.476Z,99126.25
2022-08-19T04:04:54.794Z,99123.34
2022-08-19T04:07:22.750Z,99134.75
2022-08-19T04:09:51.562Z,99126.69
2022-08-19T04:12:21.472Z,99068.84
2022-08-19T04:14:49.848Z,99119.88
2022-08-19T04:17:17.679Z,99125.88
2022-08-19T04:19:45.853Z,99127.56
2022-08-19T04:22:14.233Z,99122.78
2022-08-19T04:24:42.180Z,99122.19
2022-08-19T04:27:10.212Z,99114.31
2022-08-19T04:29:40.605Z,99123.41
2022-08-19T04:32:09.791Z,99127.53
2022-08-19T04:35:01.608Z,99096.84
2022-08-19T04:37:34.927Z,99095.97
2022-08-19T04:40:26.115Z,99100.28
2022-08-19T04:42:55.206Z,99077.63
2022-08-19T04:45:23.613Z,99109.06
2022-08-19T04:47:58.390Z,99096.88
2022-08-19T04:50:30.449Z,99131.50
2022-08-19T04:52:58.522Z,99125.53
2022-08-19T04:55:27.020Z,99091.31
2022-08-19T04:57:57.677Z,99108.66
2022-08-19T05:00:26.000Z,99061.69
2022-08-19T05:02:54.073Z,99102.34
2022-08-19T05:05:22.502Z,99107.84
2022-08-19T05:07:50.662Z,99076.00
2022-08-19T05:10:18.898Z,99112.97
2022-08-19T05:12:47.111Z,99119.03
2022-08-19T05:15:15.370Z,99106.91
2022-08-19T05:18:03.343Z,99115.78
2022-08-19T05:20:51.766Z,99114.63
2022-08-19T05:23:22.733Z,99108.00
2022-08-19T05:25:52.839Z,99088.53
2022-08-19T05:28:22.531Z,99109.44
2022-08-19T05:30:52.011Z,99113.44
2022-08-19T05:33:20.414Z,99107.72
2022-08-19T05:35:50.517Z,99070.75
2022-08-19T05:38:19.656Z,99108.97
2022-08-19T05:40:50.715Z,99104.25
2022-08-19T05:43:18.697Z,99109.47
2022-08-19T05:45:48.275Z,99104.44
2022-08-19T05:48:18.633Z,99122.53
2022-08-19T05:50:46.828Z,99121.34
2022-08-19T05:53:17.452Z,99143.75
2022-08-19T05:55:45.661Z,99086.59
2022-08-19T05:58:13.782Z,99138.53
2022-08-19T06:00:45.078Z,99116.81
2022-08-19T06:03:13.459Z,99137.94
2022-08-19T06:05:49.564Z,99141.56
2022-08-19T06:08:21.029Z,99134.72
2022-08-19T06:11:33.798Z,99141.38
2022-08-19T06:14:09.564Z,99144.75
2022-08-19T06:16:45.587Z,99144.97
2022-08-19T06:19:18.182Z,99137.88
2022-08-19T06:21:49.088Z,99129.38
2022-08-19T06:24:19.837Z,99138.13
2022-08-19T06:26:59.290Z,99159.31
2022-08-19T06:30:02.722Z,99158.44
2022-08-19T06:32:31.279Z,99151.78
2022-08-19T06:34:59.400Z,99147.81
2022-08-19T06:37:27.522Z,99149.94
2022-08-19T06:39:55.663Z,99143.66
2022-08-19T06:42:24.018Z,99146.97
2022-08-19T06:44:53.157Z,99144.69
2022-08-19T06:47:23.787Z,99103.28
2022-08-19T06:50:03.736Z,99115.34
2022-08-19T06:52:40.446Z,99109.44
2022-08-19T06:55:09.911Z,99109.31
2022-08-19T06:57:38.069Z,99125.56
2022-08-19T07:00:13.047Z,99123.66
2022-08-19T07:02:49.817Z,99138.78
2022-08-19T07:05:25.940Z,99125.69
2022-08-19T07:07:54.000Z,99126.88
2022-08-19T07:10:26.520Z,99103.81
2022-08-19T07:12:55.150Z,99123.84
2022-08-19T07:15:24.329Z,99104.97
2022-08-19T07:17:52.947Z,99141.41
2022-08-19T07:20:21.500Z,99149.38
2022-08-19T07:22:49.678Z,99119.81
2022-08-19T07:25:19.810Z,99115.38
2022-08-19T07:27:54.580Z,99163.63
2022-08-19T07:30:26.289Z,99120.03
2022-08-19T07:32:54.889Z,99148.13
2022-08-19T07:35:58.922Z,99142.66
2022-08-19T07:38:27.189Z,99148.66
2022-08-19T07:40:55.404Z,99153.56
2022-08-19T07:43:34.938Z,99155.09
2022-08-19T07:46:03.549Z,99133.19
2022-08-19T07:48:31.926Z,99134.63
2022-08-19T07:51:05.157Z,99122.28
2022-08-19T07:53:37.912Z,99150.44
2022-08-19T07:56:08.849Z,99144.81
2022-08-19T07:58:41.353Z,99140.88
2022-08-19T08:01:20.054Z,99112.91
2022-08-19T08:04:11.242Z,99152.00
2022-08-19T08:06:58.353Z,99157.13
2022-08-19T08:09:49.517Z,99146.66
2022-08-19T08:12:36.715Z,99151.19
2022-08-19T08:15:19.956Z,99151.13
2022-08-19T08:17:53.346Z,99157.97
2022-08-19T08:20:21.790Z,99157.69
2022-08-19T08:23:08.943Z,99151.13
2022-08-19T08:25:38.551Z,99166.63
2022-08-19T08:28:08.565Z,99175.25
2022-08-19T08:30:45.159Z,99139.97
2022-08-19T08:33:13.532Z,99155.25
2022-08-19T08:35:43.493Z,99122.56
2022-08-19T08:38:11.556Z,99159.59
2022-08-19T08:41:05.724Z,99160.50
2022-08-19T08:43:45.283Z,99149.22
2022-08-19T08:46:42.197Z,99148.28
2022-08-19T08:49:13.432Z,99141.97
2022-08-19T08:52:06.218Z,99148.28
2022-08-19T08:54:55.043Z,99154.13
2022-08-19T08:58:00.462Z,99124.63
2022-08-19T09:00:39.353Z,99119.97
2022-08-19T09:03:31.530Z,99149.38
2022-08-19T09:06:13.039Z,99150.28
2022-08-19T09:09:12.501Z,99155.19
2022-08-19T09:12:02.579Z,99147.44
2022-08-19T09:15:02.980Z,99147.56
2022-08-19T09:17:34.670Z,99135.78
2022-08-19T09:20:10.685Z,99089.66
2022-08-19T09:22:41.208Z,99115.88
2022-08-19T09:25:13.281Z,99113.84
2022-08-19T09:27:43.783Z,99134.34
2022-08-19T09:30:26.353Z,99134.72
2022-08-19T09:32:55.753Z,99105.16
2022-08-19T09:35:30.211Z,99103.00
2022-08-19T09:38:00.804Z,99113.47
2022-08-19T09:40:31.924Z,99134.66
2022-08-19T09:43:10.012Z,99105.50
2022-08-19T09:45:41.717Z,99126.09
2022-08-19T09:48:11.672Z,99141.63
2022-08-19T09:50:52.001Z,99141.41
2022-08-19T09:53:25.481Z,99115.97
2022-08-19T09:55:56.491Z,99135.00
2022-08-19T09:58:28.793Z,99132.03
2022-08-19T10:00:59.482Z,99130.22
2022-08-19T10:03:29.912Z,99134.94
2022-08-19T10:06:03.002Z,99115.16
2022-08-19T10:08:36.054Z,99132.84
2022-08-19T10:11:28.034Z,99102.84
2022-08-19T10:13:54.928Z,99129.19
2022-08-19T10:16:30.103Z,99135.78
2022-08-19T10:18:59.346Z,99099.28
2022-08-19T10:21:32.021Z,99122.69
2022-08-19T10:24:05.160Z,99144.88
2022-08-19T10:26:38.324Z,99113.19
2022-08-19T10:29:09.285Z,99104.41
2022-08-19T10:32:00.082Z,99136.72
2022-08-19T10:34:28.566Z,99143.34
2022-08-19T10:37:00.917Z,99133.09
2022-08-19T10:39:43.429Z,99113.09
2022-08-19T10:42:14.222Z,99126.59
2022-08-19T10:44:42.872Z,99139.78
2022-08-19T10:47:17.272Z,99086.00
2022-08-19T10:50:13.876Z,99119.25
2022-08-19T10:52:50.267Z,99128.72
2022-08-19T10:55:41.624Z,99139.16
2022-08-19T10:58:23.359Z,99130.16
2022-08-19T11:00:59.998Z,99113.13
2022-08-19T11:03:31.864Z,99127.66
2022-08-19T11:06:08.204Z,99078.03
2022-08-19T11:08:39.069Z,99110.31
2022-08-19T11:11:08.100Z,99110.75
2022-08-19T11:13:40.164Z,99064.84
2022-08-19T11:16:14.636Z,99110.16
2022-08-19T11:18:50.263Z,99099.69
2022-08-19T11:21:22.200Z,99107.81
2022-08-19T11:23:54.380Z,99066.53
2022-08-19T11:26:26.102Z,99070.63
2022-08-19T11:28:56.148Z,99090.72
2022-08-19T11:31:31.893Z,99076.03
2022-08-19T11:34:04.336Z,99067.72
2022-08-19T11:36:35.779Z,99080.97
2022-08-19T11:39:08.025Z,99068.19
2022-08-19T11:41:36.534Z,99075.44
2022-08-19T11:44:05.698Z,99053.19
2022-08-19T11:46:33.866Z,99078.81
2022-08-19T11:49:04.503Z,99077.97
2022-08-19T11:51:33.208Z,99065.69
2022-08-19T11:54:02.157Z,99074.59
2022-08-19T11:56:31.260Z,99071.84
2022-08-19T11:58:59.677Z,99071.50
2022-08-19T12:01:28.598Z,99069.34
2022-08-19T12:03:58.212Z,99002.75
2022-08-19T12:06:30.849Z,99070.59
2022-08-19T12:09:05.159Z,99067.84
2022-08-19T12:11:34.491Z,99051.94
2022-08-19T12:14:03.007Z,99067.78
2022-08-19T12:16:33.739Z,99064.09
2022-08-19T12:19:05.379Z,99033.47
2022-08-19T12:21:36.336Z,99065.94
2022-08-19T12:24:07.097Z,99050.81
2022-08-19T12:26:52.554Z,99063.56
2022-08-19T12:29:24.330Z,99032.19
2022-08-19T12:31:52.846Z,99069.66
2022-08-19T12:34:21.363Z,99029.41
2022-08-19T12:36:51.074Z,98992.00
2022-08-19T12:39:19.199Z,99027.41
2022-08-19T12:41:51.388Z,99054.56
2022-08-19T12:44:29.338Z,99047.34
2022-08-19T12:47:00.953Z,99010.06
2022-08-19T12:49:52.336Z,99034.72
2022-08-19T12:52:23.468Z,99004.78
2022-08-19T12:54:54.913Z,99040.06
2022-08-19T12:57:32.166Z,99024.22
2022-08-19T13:00:22.333Z,98957.91
2022-08-19T13:02:53.487Z,98999.84
2022-08-19T13:05:25.968Z,99004.38
2022-08-19T13:08:00.740Z,99023.88
2022-08-19T13:10:36.473Z,99018.28
2022-08-19T13:13:08.685Z,99029.06
2022-08-19T13:15:41.264Z,99027.00
2022-08-19T13:18:11.448Z,99038.69
2022-08-19T13:20:41.783Z,99040.75
2022-08-19T13:23:10.668Z,99033.59
2022-08-19T13:25:38.687Z,99008.34
2022-08-19T13:28:07.650Z,99017.09
2022-08-19T13:30:54.590Z,99020.53
2022-08-19T13:33:22.635Z,99012.63
2022-08-19T13:36:02.016Z,99013.66
2022-08-19T13:38:31.538Z,99007.88
2022-08-19T13:41:10.978Z,98991.78
2022-08-19T13:43:39.348Z,99009.53
2022-08-19T13:46:15.250Z,99018.47
2022-08-19T13:48:44.001Z,99014.13
2022-08-19T13:51:12.087Z,98992.91
2022-08-19T13:53:47.385Z,99007.66
2022-08-19T13:56:24.138Z,98986.84
2022-08-19T13:58:54.733Z,99009.25
2022-08-19T14:01:27.766Z,99012.44
2022-08-19T14:03:55.936Z,98982.22
2022-08-19T14:06:24.275Z,99011.94
2022-08-19T14:08:53.705Z,99017.66
2022-08-19T14:11:24.166Z,98990.94
2022-08-19T14:13:52.676Z,99010.44
2022-08-19T14:16:22.629Z,99008.44
2022-08-19T14:18:50.737Z,99018.38
2022-08-19T14:21:24.729Z,99013.31
2022-08-19T14:23:54.284Z,99010.31
2022-08-19T14:26:25.264Z,98999.34
2022-08-19T14:28:53.899Z,99000.69
2022-08-19T14:31:29.020Z,98988.09
2022-08-19T14:33:58.912Z,98971.44
2022-08-19T14:36:27.184Z,98967.41
2022-08-19T14:38:55.317Z,98988.28
2022-08-19T14:41:24.735Z,98993.88
2022-08-19T14:43:55.811Z,98984.56
2022-08-19T14:46:29.509Z,98937.31
2022-08-19T14:48:59.886Z,98984.41
2022-08-19T14:51:29.343Z,98988.81
2022-08-19T14:53:57.908Z,98990.63
2022-08-19T14:56:30.352Z,98964.00
2022-08-19T14:59:02.058Z,98970.38
2022-08-19T15:01:30.154Z,98937.09
2022-08-19T15:03:58.615Z,98961.81
2022-08-19T15:06:27.389Z,99007.50
2022-08-19T15:08:58.639Z,98956.44
2022-08-19T15:11:30.713Z,98995.06
2022-08-19T15:13:59.226Z,99008.69
2022-08-19T15:16:28.199Z,99016.06
2022-08-19T15:19:00.174Z,99003.19
2022-08-19T15:21:30.387Z,98997.75
2022-08-19T15:24:00.908Z,99025.44
2022-08-19T15:26:32.888Z,99006.34
2022-08-19T15:29:02.800Z,99019.22
2022-08-19T15:31:38.824Z,99032.44
2022-08-19T15:34:08.152Z,98995.56
2022-08-19T15:36:37.940Z,99010.09
2022-08-19T15:39:07.500Z,99027.22
2022-08-19T15:41:37.010Z,99035.53
2022-08-19T15:44:10.814Z,99016.88
2022-08-19T15:46:43.021Z,99028.03
2022-08-19T15:49:15.051Z,99012.19
2022-08-19T15:51:45.487Z,99025.59
2022-08-19T15:54:18.184Z,99020.53
2022-08-19T15:57:05.186Z,98986.09
2022-08-19T15:59:54.030Z,98991.56
2022-08-19T16:02:47.061Z,99006.31
2022-08-19T16:05:39.284Z,99007.94
2022-08-19T16:08:10.120Z,99011.38
2022-08-19T16:10:39.774Z,98999.00
2022-08-19T16:13:07.916Z,99023.94
2022-08-19T16:15:36.312Z,99022.38
2022-08-19T16:18:05.241Z,99031.13
2022-08-19T16:20:33.333Z,99004.00
2022-08-19T16:23:05.406Z,99023.84
2022-08-19T16:25:33.478Z,99015.31
2022-08-19T16:28:07.423Z,99014.75
2022-08-19T16:30:41.938Z,99020.28
2022-08-19T16:33:10.751Z,98986.84
2022-08-19T16:35:39.193Z,99018.78
2022-08-19T16:38:07.512Z,99004.25
2022-08-19T16:40:35.669Z,98980.78
2022-08-19T16:43:04.467Z,98978.59
2022-08-19T16:45:33.269Z,98993.97
2022-08-19T16:48:01.287Z,99005.06
2022-08-19T16:50:48.347Z,99011.16
2022-08-19T16:53:22.831Z,99021.00
2022-08-19T16:55:53.335Z,99016.88
2022-08-19T16:58:29.370Z,99014.47
2022-08-19T17:01:03.782Z,99000.06
2022-08-19T17:03:36.038Z,99012.44
2022-08-19T17:06:18.976Z,99010.06
2022-08-19T17:08:52.258Z,99012.03
2022-08-19T17:11:22.720Z,99012.09
2022-08-19T17:13:51.337Z,99006.13
2022-08-19T17:16:24.901Z,99011.31
2022-08-19T17:18:56.101Z,99006.16
2022-08-19T17:21:32.144Z,99007.00
2022-08-19T17:24:03.534Z,99011.09
2022-08-19T17:26:32.193Z,99009.41
2022-08-19T17:29:01.197Z,99022.50
2022-08-19T17:31:31.519Z,99022.22
2022-08-19T17:34:00.621Z,99004.59
2022-08-19T17:36:31.980Z,98979.38
2022-08-19T17:39:02.192Z,99019.28
2022-08-19T17:41:30.996Z,99025.28
2022-08-19T17:43:59.007Z,98982.47
2022-08-19T17:46:30.764Z,98985.16
2022-08-19T17:48:59.724Z,99021.31
2022-08-19T17:51:42.324Z,99022.34
2022-08-19T17:54:15.577Z,99024.44
2022-08-19T17:56:45.439Z,99028.44
2022-08-19T17:59:14.922Z,99033.03
2022-08-19T18:01:53.543Z,98996.22
2022-08-19T18:04:25.250Z,99029.03
2022-08-19T18:06:55.822Z,98996.06
2022-08-19T18:09:42.326Z,99030.78
2022-08-19T18:12:13.795Z,99036.44
2022-08-19T18:14:43.731Z,99044.53
2022-08-19T18:17:17.609Z,99045.56
2022-08-19T18:19:48.039Z,99043.81
2022-08-19T18:22:28.175Z,99041.00
2022-08-19T18:24:58.633Z,99028.97
2022-08-19T18:27:28.355Z,99047.31
2022-08-19T18:30:00.039Z,99051.88
2022-08-19T18:32:39.378Z,99041.09
2022-08-19T18:35:14.579Z,99013.84
2022-08-19T18:37:44.375Z,99019.28
2022-08-19T18:40:39.874Z,99057.81
2022-08-19T18:43:27.235Z,99067.00
2022-08-19T18:46:14.381Z,99037.78
2022-08-19T18:49:01.129Z,99022.59
2022-08-19T18:51:32.713Z,99061.78
2022-08-19T18:54:01.551Z,99027.88
2022-08-19T18:56:35.025Z,99073.56
2022-08-19T18:59:03.611Z,99072.09
2022-08-19T19:01:39.806Z,99068.13
2022-08-19T19:04:13.492Z,99075.16
2022-08-19T19:06:43.117Z,99070.38
2022-08-19T19:09:17.524Z,99035.44
2022-08-19T19:11:51.250Z,99081.19
2022-08-19T19:14:49.071Z,99053.81
2022-08-19T19:17:18.837Z,99079.03
2022-08-19T19:19:48.003Z,99033.47
2022-08-19T19:22:21.471Z,99063.06
2022-08-19T19:24:51.119Z,99072.06
2022-08-19T19:27:21.522Z,99082.94
2022-08-19T19:29:52.449Z,99089.69
2022-08-19T19:32:36.919Z,99094.09
2022-08-19T19:35:10.765Z,99088.31
2022-08-19T19:37:39.017Z,99052.75
2022-08-19T19:40:08.009Z,99085.81
2022-08-19T19:42:36.957Z,99049.38
2022-08-19T19:45:05.595Z,99098.22
2022-08-19T19:47:34.818Z,99087.75
2022-08-19T19:50:18.350Z,99084.25
2022-08-19T19:52:48.016Z,99089.44
2022-08-19T19:55:18.970Z,99094.63
2022-08-19T19:57:49.162Z,99087.53
2022-08-19T20:00:19.223Z,99084.47
2022-08-19T20:02:51.028Z,99091.81
2022-08-19T20:05:23.520Z,99060.69
2022-08-19T20:08:12.648Z,99097.59
2022-08-19T20:10:43.268Z,99064.31
2022-08-19T20:13:13.744Z,99091.91
2022-08-19T20:15:45.972Z,99049.13
2022-08-19T20:18:14.879Z,99095.81
2022-08-19T20:20:44.501Z,99089.22
2022-08-19T20:23:13.513Z,99089.34
2022-08-19T20:25:42.369Z,99088.41
2022-08-19T20:28:12.130Z,99087.47
2022-08-19T20:30:46.533Z,99104.22
2022-08-19T20:33:15.235Z,99102.69
2022-08-19T20:35:44.919Z,99078.66
2022-08-19T20:38:13.959Z,99055.59
2022-08-19T20:40:42.316Z,99115.69
2022-08-19T20:43:13.397Z,99072.53
2022-08-19T20:45:41.684Z,99106.63
2022-08-19T20:48:12.716Z,99095.16
2022-08-19T20:50:41.216Z,99102.13
2022-08-19T20:53:13.662Z,99079.59
2022-08-19T20:55:45.438Z,99094.47
2022-08-19T20:58:14.193Z,99081.59
2022-08-19T21:00:45.857Z,99093.28
2022-08-19T21:03:20.554Z,99102.50
2022-08-19T21:05:49.300Z,99056.19
2022-08-19T21:08:18.426Z,99060.69
2022-08-19T21:10:52.102Z,99054.91
2022-08-19T21:13:20.982Z,99083.47
2022-08-19T21:15:50.632Z,99072.84
2022-08-19T21:18:23.260Z,99084.56
2022-08-19T21:20:51.911Z,99077.69
2022-08-19T21:23:27.580Z,99077.53
2022-08-19T21:25:59.668Z,99082.06
2022-08-19T21:28:35.189Z,99071.06
2022-08-19T21:31:07.316Z,99007.84
2022-08-19T21:33:35.325Z,99078.75
2022-08-19T21:36:05.003Z,99072.00
2022-08-19T21:38:33.527Z,99084.75
2022-08-19T21:41:06.219Z,99070.00
2022-08-19T21:43:38.676Z,99045.94
2022-08-19T21:46:07.248Z,99075.66
2022-08-19T21:48:36.803Z,99065.78
2022-08-19T21:51:04.916Z,99055.25
2022-08-19T21:53:34.202Z,99066.47
2022-08-19T21:56:04.821Z,99072.00
2022-08-19T21:58:33.972Z,99074.13
2022-08-19T22:01:07.941Z,99083.16
2022-08-19T22:03:38.381Z,99027.44
2022-08-19T22:06:06.974Z,99061.44
2022-08-19T22:08:35.370Z,99063.31
2022-08-19T22:11:05.020Z,99066.03
2022-08-19T22:13:39.886Z,99047.66
2022-08-19T22:16:09.899Z,99030.53
2022-08-19T22:18:38.096Z,99057.72
2022-08-19T22:21:11.323Z,99054.75
2022-08-19T22:23:45.631Z,99057.34
2022-08-19T22:26:18.109Z,99059.06
2022-08-19T22:28:46.745Z,98981.84
2022-08-19T22:31:15.713Z,99040.75
2022-08-19T22:33:44.180Z,99048.41
2022-08-19T22:36:12.318Z,99051.22
2022-08-19T22:38:40.401Z,99048.59
2022-08-19T22:41:08.375Z,99022.59
2022-08-19T22:43:37.827Z,99056.81
2022-08-19T22:46:16.892Z,99046.50
2022-08-19T22:48:48.174Z,99054.03
2022-08-19T22:51:43.053Z,99057.09
2022-08-19T22:54:11.171Z,99054.34
2022-08-19T22:56:39.511Z,99052.94
2022-08-19T22:59:08.910Z,99058.13
2022-08-19T23:01:37.294Z,99058.34
2022-08-19T23:04:05.767Z,99018.09
2022-08-19T23:06:35.746Z,99061.16
2022-08-19T23:09:08.863Z,99061.84
2022-08-19T23:11:42.005Z,99055.28
2022-08-19T23:14:12.866Z,99064.44
2022-08-19T23:16:41.963Z,99009.88
2022-08-19T23:19:11.249Z,99062.66
2022-08-19T23:21:41.765Z,99058.72
2022-08-19T23:24:10.310Z,99058.34
2022-08-19T23:26:38.377Z,99065.50
2022-08-19T23:29:25.206Z,99063.81
2022-08-19T23:31:53.254Z,98998.06
2022-08-19T23:34:21.394Z,99057.50
2022-08-19T23:36:50.871Z,99047.19
2022-08-19T23:39:19.477Z,99025.09
2022-08-19T23:41:48.232Z,99058.88
2022-08-19T23:44:16.381Z,99061.22
2022-08-19T23:46:54.652Z,99050.25
2022-08-19T23:49:25.910Z,99056.66
2022-08-19T23:51:55.639Z,99023.53
2022-08-19T23:54:27.498Z,99053.81
2022-08-19T23:57:13.938Z,99050.31
2022-08-19T23:59:45.571Z,99036.31
